sensor_id;sensor_type;location;lat;lon;timestamp;P1;durP1;ratioP1;P2;durP2;ratioP2
73693;SDS011;61997;53.974;11.670;2023-02-15T00:00:52;6.55;;;3.83;;
73693;SDS011;61997;53.974;11.670;2023-02-15T00:03:20;8.75;;;4.00;;
73693;SDS011;61997;53.974;11.670;2023-02-15T00:05:46;7.97;;;4.00;;
73693;SDS011;61997;53.974;11.670;2023-02-15T00:08:11;6.82;;;3.60;;
73693;SDS011;61997;53.974;11.670;2023-02-15T00:10:37;7.75;;;4.45;;
73693;SDS011;61997;53.974;11.670;2023-02-15T00:13:02;7.53;;;3.92;;
73693;SDS011;61997;53.974;11.670;2023-02-15T00:15:28;7.05;;;3.50;;
73693;SDS011;61997;53.974;11.670;2023-02-15T00:17:53;5.82;;;3.63;;
73693;SDS011;61997;53.974;11.670;2023-02-15T00:20:18;7.70;;;4.32;;
73693;SDS011;61997;53.974;11.670;2023-02-15T00:22:44;8.75;;;3.88;;
73693;SDS011;61997;53.974;11.670;2023-02-15T00:25:09;6.47;;;3.42;;
73693;SDS011;61997;53.974;11.670;2023-02-15T00:27:35;8.88;;;4.53;;
73693;SDS011;61997;53.974;11.670;2023-02-15T00:30:00;7.40;;;3.60;;
73693;SDS011;61997;53.974;11.670;2023-02-15T00:32:25;8.00;;;4.25;;
73693;SDS011;61997;53.974;11.670;2023-02-15T00:34:51;8.27;;;3.78;;
73693;SDS011;61997;53.974;11.670;2023-02-15T00:37:16;8.05;;;4.05;;
73693;SDS011;61997;53.974;11.670;2023-02-15T00:39:41;6.22;;;4.25;;
73693;SDS011;61997;53.974;11.670;2023-02-15T00:42:07;7.97;;;3.70;;
73693;SDS011;61997;53.974;11.670;2023-02-15T00:44:32;8.73;;;4.25;;
73693;SDS011;61997;53.974;11.670;2023-02-15T00:46:58;6.85;;;3.53;;
73693;SDS011;61997;53.974;11.670;2023-02-15T00:49:23;7.53;;;3.80;;
73693;SDS011;61997;53.974;11.670;2023-02-15T00:51:48;7.28;;;3.67;;
73693;SDS011;61997;53.974;11.670;2023-02-15T00:54:14;6.78;;;4.00;;
73693;SDS011;61997;53.974;11.670;2023-02-15T00:56:40;6.35;;;3.78;;
73693;SDS011;61997;53.974;11.670;2023-02-15T00:59:05;7.85;;;3.47;;
73693;SDS011;61997;53.974;11.670;2023-02-15T01:01:31;5.72;;;3.78;;
73693;SDS011;61997;53.974;11.670;2023-02-15T01:03:56;7.70;;;3.95;;
73693;SDS011;61997;53.974;11.670;2023-02-15T01:06:22;7.90;;;4.10;;
73693;SDS011;61997;53.974;11.670;2023-02-15T01:08:47;8.35;;;4.80;;
73693;SDS011;61997;53.974;11.670;2023-02-15T01:11:14;7.88;;;4.22;;
73693;SDS011;61997;53.974;11.670;2023-02-15T01:13:47;7.68;;;3.85;;
73693;SDS011;61997;53.974;11.670;2023-02-15T01:16:15;6.40;;;3.75;;
73693;SDS011;61997;53.974;11.670;2023-02-15T01:18:40;9.75;;;4.22;;
73693;SDS011;61997;53.974;11.670;2023-02-15T01:21:13;7.47;;;3.72;;
73693;SDS011;61997;53.974;11.670;2023-02-15T01:23:40;7.63;;;4.05;;
73693;SDS011;61997;53.974;11.670;2023-02-15T01:26:07;8.50;;;4.75;;
73693;SDS011;61997;53.974;11.670;2023-02-15T01:28:32;8.70;;;4.35;;
73693;SDS011;61997;53.974;11.670;2023-02-15T01:30:58;6.97;;;3.75;;
73693;SDS011;61997;53.974;11.670;2023-02-15T01:33:24;7.47;;;4.03;;
73693;SDS011;61997;53.974;11.670;2023-02-15T01:35:55;9.75;;;4.00;;
73693;SDS011;61997;53.974;11.670;2023-02-15T01:38:21;7.82;;;4.07;;
73693;SDS011;61997;53.974;11.670;2023-02-15T01:40:49;8.20;;;4.45;;
73693;SDS011;61997;53.974;11.670;2023-02-15T01:43:16;6.72;;;3.65;;
73693;SDS011;61997;53.974;11.670;2023-02-15T01:45:43;10.13;;;4.63;;
73693;SDS011;61997;53.974;11.670;2023-02-15T01:48:19;7.43;;;3.88;;
73693;SDS011;61997;53.974;11.670;2023-02-15T01:50:47;7.75;;;3.97;;
73693;SDS011;61997;53.974;11.670;2023-02-15T01:53:36;10.88;;;4.15;;
73693;SDS011;61997;53.974;11.670;2023-02-15T01:56:05;6.38;;;3.45;;
73693;SDS011;61997;53.974;11.670;2023-02-15T01:58:36;7.78;;;3.88;;
73693;SDS011;61997;53.974;11.670;2023-02-15T02:01:02;8.40;;;3.83;;
73693;SDS011;61997;53.974;11.670;2023-02-15T02:06:22;7.68;;;4.60;;
73693;SDS011;61997;53.974;11.670;2023-02-15T02:08:48;6.35;;;4.00;;
73693;SDS011;61997;53.974;11.670;2023-02-15T02:11:14;7.22;;;3.70;;
73693;SDS011;61997;53.974;11.670;2023-02-15T02:13:40;8.32;;;4.05;;
73693;SDS011;61997;53.974;11.670;2023-02-15T02:28:02;7.82;;;4.10;;
73693;SDS011;61997;53.974;11.670;2023-02-15T02:36:15;9.18;;;4.18;;
73693;SDS011;61997;53.974;11.670;2023-02-15T02:41:50;7.28;;;3.53;;
73693;SDS011;61997;53.974;11.670;2023-02-15T02:47:13;8.23;;;3.58;;
73693;SDS011;61997;53.974;11.670;2023-02-15T02:49:43;8.45;;;3.97;;
73693;SDS011;61997;53.974;11.670;2023-02-15T02:55:05;7.95;;;3.85;;
73693;SDS011;61997;53.974;11.670;2023-02-15T02:57:33;10.40;;;4.40;;
73693;SDS011;61997;53.974;11.670;2023-02-15T03:00:00;7.13;;;3.95;;
73693;SDS011;61997;53.974;11.670;2023-02-15T03:02:29;9.98;;;4.32;;
73693;SDS011;61997;53.974;11.670;2023-02-15T03:05:00;8.02;;;3.88;;
73693;SDS011;61997;53.974;11.670;2023-02-15T03:07:28;8.15;;;4.75;;
73693;SDS011;61997;53.974;11.670;2023-02-15T03:09:56;7.47;;;4.00;;
73693;SDS011;61997;53.974;11.670;2023-02-15T03:14:51;7.68;;;4.30;;
73693;SDS011;61997;53.974;11.670;2023-02-15T03:17:19;8.48;;;4.05;;
73693;SDS011;61997;53.974;11.670;2023-02-15T03:19:48;9.63;;;5.35;;
73693;SDS011;61997;53.974;11.670;2023-02-15T03:24:56;8.07;;;4.00;;
73693;SDS011;61997;53.974;11.670;2023-02-15T03:27:24;9.57;;;4.47;;
73693;SDS011;61997;53.974;11.670;2023-02-15T03:29:53;7.47;;;3.63;;
73693;SDS011;61997;53.974;11.670;2023-02-15T03:32:22;6.60;;;3.83;;
73693;SDS011;61997;53.974;11.670;2023-02-15T03:34:48;7.38;;;4.40;;
73693;SDS011;61997;53.974;11.670;2023-02-15T03:39:52;7.13;;;3.70;;
73693;SDS011;61997;53.974;11.670;2023-02-15T03:42:31;7.65;;;3.67;;
73693;SDS011;61997;53.974;11.670;2023-02-15T03:45:11;9.15;;;4.72;;
73693;SDS011;61997;53.974;11.670;2023-02-15T03:47:40;6.85;;;3.95;;
73693;SDS011;61997;53.974;11.670;2023-02-15T03:50:13;7.85;;;4.45;;
73693;SDS011;61997;53.974;11.670;2023-02-15T03:52:58;7.60;;;4.50;;
73693;SDS011;61997;53.974;11.670;2023-02-15T03:55:25;7.90;;;4.03;;
73693;SDS011;61997;53.974;11.670;2023-02-15T03:57:50;8.13;;;4.03;;
73693;SDS011;61997;53.974;11.670;2023-02-15T04:00:35;7.90;;;4.05;;
73693;SDS011;61997;53.974;11.670;2023-02-15T04:03:23;7.78;;;4.20;;
73693;SDS011;61997;53.974;11.670;2023-02-15T04:05:53;8.80;;;4.05;;
73693;SDS011;61997;53.974;11.670;2023-02-15T04:08:18;7.25;;;4.07;;
73693;SDS011;61997;53.974;11.670;2023-02-15T04:10:44;7.15;;;4.28;;
73693;SDS011;61997;53.974;11.670;2023-02-15T04:13:20;6.80;;;3.55;;
73693;SDS011;61997;53.974;11.670;2023-02-15T04:15:49;7.20;;;4.07;;
73693;SDS011;61997;53.974;11.670;2023-02-15T04:18:38;9.25;;;4.43;;
73693;SDS011;61997;53.974;11.670;2023-02-15T04:21:23;7.57;;;4.15;;
73693;SDS011;61997;53.974;11.670;2023-02-15T04:24:08;8.38;;;4.35;;
73693;SDS011;61997;53.974;11.670;2023-02-15T04:26:52;8.25;;;4.35;;
73693;SDS011;61997;53.974;11.670;2023-02-15T04:29:18;6.70;;;4.18;;
73693;SDS011;61997;53.974;11.670;2023-02-15T04:31:48;7.35;;;3.83;;
73693;SDS011;61997;53.974;11.670;2023-02-15T04:34:14;8.13;;;4.45;;
73693;SDS011;61997;53.974;11.670;2023-02-15T04:36:39;7.57;;;4.30;;
73693;SDS011;61997;53.974;11.670;2023-02-15T04:39:05;5.38;;;3.40;;
73693;SDS011;61997;53.974;11.670;2023-02-15T04:41:31;8.65;;;4.28;;
73693;SDS011;61997;53.974;11.670;2023-02-15T04:43:57;8.10;;;4.60;;
73693;SDS011;61997;53.974;11.670;2023-02-15T04:46:24;8.98;;;4.22;;
73693;SDS011;61997;53.974;11.670;2023-02-15T04:48:49;8.05;;;4.30;;
73693;SDS011;61997;53.974;11.670;2023-02-15T04:51:15;9.15;;;4.85;;
73693;SDS011;61997;53.974;11.670;2023-02-15T04:53:40;9.23;;;4.68;;
73693;SDS011;61997;53.974;11.670;2023-02-15T04:56:06;6.78;;;4.65;;
73693;SDS011;61997;53.974;11.670;2023-02-15T04:58:31;11.02;;;4.80;;
73693;SDS011;61997;53.974;11.670;2023-02-15T05:00:57;8.48;;;4.70;;
73693;SDS011;61997;53.974;11.670;2023-02-15T05:03:23;7.68;;;3.65;;
73693;SDS011;61997;53.974;11.670;2023-02-15T05:05:49;10.07;;;4.40;;
73693;SDS011;61997;53.974;11.670;2023-02-15T05:08:15;8.48;;;4.50;;
73693;SDS011;61997;53.974;11.670;2023-02-15T05:10:40;8.95;;;4.60;;
73693;SDS011;61997;53.974;11.670;2023-02-15T05:13:05;9.88;;;4.65;;
73693;SDS011;61997;53.974;11.670;2023-02-15T05:15:31;10.02;;;5.38;;
73693;SDS011;61997;53.974;11.670;2023-02-15T05:17:56;8.40;;;4.63;;
73693;SDS011;61997;53.974;11.670;2023-02-15T05:20:22;10.18;;;4.80;;
73693;SDS011;61997;53.974;11.670;2023-02-15T05:22:53;8.55;;;4.53;;
73693;SDS011;61997;53.974;11.670;2023-02-15T05:28:03;9.23;;;4.00;;
73693;SDS011;61997;53.974;11.670;2023-02-15T05:30:45;9.02;;;4.50;;
73693;SDS011;61997;53.974;11.670;2023-02-15T05:33:24;8.60;;;4.45;;
73693;SDS011;61997;53.974;11.670;2023-02-15T05:35:50;11.13;;;4.45;;
73693;SDS011;61997;53.974;11.670;2023-02-15T05:38:16;11.82;;;5.60;;
73693;SDS011;61997;53.974;11.670;2023-02-15T05:40:44;8.75;;;4.55;;
73693;SDS011;61997;53.974;11.670;2023-02-15T05:43:11;8.27;;;4.32;;
73693;SDS011;61997;53.974;11.670;2023-02-15T05:45:36;9.02;;;5.00;;
73693;SDS011;61997;53.974;11.670;2023-02-15T05:48:02;9.05;;;5.13;;
73693;SDS011;61997;53.974;11.670;2023-02-15T05:50:27;8.00;;;4.45;;
73693;SDS011;61997;53.974;11.670;2023-02-15T05:52:52;9.02;;;5.40;;
73693;SDS011;61997;53.974;11.670;2023-02-15T05:55:18;9.23;;;5.32;;
73693;SDS011;61997;53.974;11.670;2023-02-15T05:57:43;9.75;;;4.90;;
73693;SDS011;61997;53.974;11.670;2023-02-15T06:00:09;10.23;;;5.63;;
73693;SDS011;61997;53.974;11.670;2023-02-15T06:02:35;9.18;;;4.82;;
73693;SDS011;61997;53.974;11.670;2023-02-15T06:05:02;11.05;;;5.70;;
73693;SDS011;61997;53.974;11.670;2023-02-15T06:07:28;9.65;;;5.05;;
73693;SDS011;61997;53.974;11.670;2023-02-15T06:09:54;10.20;;;6.25;;
73693;SDS011;61997;53.974;11.670;2023-02-15T06:12:19;8.88;;;5.45;;
73693;SDS011;61997;53.974;11.670;2023-02-15T06:14:45;10.23;;;6.40;;
73693;SDS011;61997;53.974;11.670;2023-02-15T06:17:10;8.93;;;5.93;;
73693;SDS011;61997;53.974;11.670;2023-02-15T06:19:36;11.85;;;6.38;;
73693;SDS011;61997;53.974;11.670;2023-02-15T06:22:01;13.63;;;6.75;;
73693;SDS011;61997;53.974;11.670;2023-02-15T06:24:26;11.55;;;5.85;;
73693;SDS011;61997;53.974;11.670;2023-02-15T06:26:52;10.20;;;5.93;;
73693;SDS011;61997;53.974;11.670;2023-02-15T06:29:17;12.68;;;5.80;;
73693;SDS011;61997;53.974;11.670;2023-02-15T06:31:42;11.02;;;5.80;;
73693;SDS011;61997;53.974;11.670;2023-02-15T06:34:08;12.35;;;5.80;;
73693;SDS011;61997;53.974;11.670;2023-02-15T06:36:33;9.93;;;6.25;;
73693;SDS011;61997;53.974;11.670;2023-02-15T06:38:59;11.07;;;6.03;;
73693;SDS011;61997;53.974;11.670;2023-02-15T06:41:24;11.38;;;6.40;;
73693;SDS011;61997;53.974;11.670;2023-02-15T06:43:50;11.95;;;6.40;;
73693;SDS011;61997;53.974;11.670;2023-02-15T06:46:15;8.95;;;5.68;;
73693;SDS011;61997;53.974;11.670;2023-02-15T06:48:41;12.95;;;6.50;;
73693;SDS011;61997;53.974;11.670;2023-02-15T06:51:06;13.68;;;6.85;;
73693;SDS011;61997;53.974;11.670;2023-02-15T06:53:31;11.77;;;6.40;;
73693;SDS011;61997;53.974;11.670;2023-02-15T06:56:01;12.38;;;6.82;;
73693;SDS011;61997;53.974;11.670;2023-02-15T06:58:34;10.98;;;5.53;;
73693;SDS011;61997;53.974;11.670;2023-02-15T07:01:00;10.48;;;6.25;;
73693;SDS011;61997;53.974;11.670;2023-02-15T07:03:25;11.52;;;6.43;;
73693;SDS011;61997;53.974;11.670;2023-02-15T07:05:57;12.35;;;5.90;;
73693;SDS011;61997;53.974;11.670;2023-02-15T07:08:24;11.57;;;5.82;;
73693;SDS011;61997;53.974;11.670;2023-02-15T07:10:50;10.30;;;5.65;;
73693;SDS011;61997;53.974;11.670;2023-02-15T07:13:16;10.98;;;6.22;;
73693;SDS011;61997;53.974;11.670;2023-02-15T07:15:41;12.70;;;6.70;;
73693;SDS011;61997;53.974;11.670;2023-02-15T07:18:07;11.52;;;6.40;;
73693;SDS011;61997;53.974;11.670;2023-02-15T07:20:34;13.48;;;6.63;;
73693;SDS011;61997;53.974;11.670;2023-02-15T07:23:00;11.77;;;6.55;;
73693;SDS011;61997;53.974;11.670;2023-02-15T07:25:26;13.93;;;6.75;;
73693;SDS011;61997;53.974;11.670;2023-02-15T07:28:10;11.20;;;5.90;;
73693;SDS011;61997;53.974;11.670;2023-02-15T07:30:36;11.25;;;6.00;;
73693;SDS011;61997;53.974;11.670;2023-02-15T07:33:01;10.80;;;6.35;;
73693;SDS011;61997;53.974;11.670;2023-02-15T07:38:18;13.48;;;6.90;;
73693;SDS011;61997;53.974;11.670;2023-02-15T07:40:44;11.93;;;6.22;;
73693;SDS011;61997;53.974;11.670;2023-02-15T07:43:09;11.27;;;6.53;;
73693;SDS011;61997;53.974;11.670;2023-02-15T07:45:35;11.35;;;5.55;;
73693;SDS011;61997;53.974;11.670;2023-02-15T07:48:01;10.70;;;5.90;;
73693;SDS011;61997;53.974;11.670;2023-02-15T07:50:27;13.88;;;6.40;;
73693;SDS011;61997;53.974;11.670;2023-02-15T07:52:52;12.13;;;6.70;;
73693;SDS011;61997;53.974;11.670;2023-02-15T07:55:17;12.10;;;5.88;;
73693;SDS011;61997;53.974;11.670;2023-02-15T07:57:46;10.77;;;5.70;;
73693;SDS011;61997;53.974;11.670;2023-02-15T08:00:13;11.75;;;7.07;;
73693;SDS011;61997;53.974;11.670;2023-02-15T08:02:40;11.15;;;6.18;;
73693;SDS011;61997;53.974;11.670;2023-02-15T08:05:06;10.27;;;5.85;;
73693;SDS011;61997;53.974;11.670;2023-02-15T08:07:31;11.45;;;6.20;;
73693;SDS011;61997;53.974;11.670;2023-02-15T08:09:57;10.60;;;6.00;;
73693;SDS011;61997;53.974;11.670;2023-02-15T08:12:25;11.02;;;5.70;;
73693;SDS011;61997;53.974;11.670;2023-02-15T08:14:51;11.90;;;6.90;;
73693;SDS011;61997;53.974;11.670;2023-02-15T08:17:16;11.00;;;6.13;;
73693;SDS011;61997;53.974;11.670;2023-02-15T08:19:42;11.02;;;6.07;;
73693;SDS011;61997;53.974;11.670;2023-02-15T08:22:07;11.65;;;6.32;;
73693;SDS011;61997;53.974;11.670;2023-02-15T08:24:35;12.15;;;6.30;;
73693;SDS011;61997;53.974;11.670;2023-02-15T08:27:02;12.48;;;7.20;;
73693;SDS011;61997;53.974;11.670;2023-02-15T08:29:28;12.07;;;6.22;;
73693;SDS011;61997;53.974;11.670;2023-02-15T08:31:59;13.05;;;5.97;;
73693;SDS011;61997;53.974;11.670;2023-02-15T08:34:28;9.13;;;5.40;;
73693;SDS011;61997;53.974;11.670;2023-02-15T08:37:03;11.68;;;7.03;;
73693;SDS011;61997;53.974;11.670;2023-02-15T08:39:28;8.90;;;5.88;;
73693;SDS011;61997;53.974;11.670;2023-02-15T08:41:54;11.32;;;6.35;;
73693;SDS011;61997;53.974;11.670;2023-02-15T08:44:19;12.02;;;5.90;;
73693;SDS011;61997;53.974;11.670;2023-02-15T08:46:46;9.77;;;5.68;;
73693;SDS011;61997;53.974;11.670;2023-02-15T08:49:12;12.07;;;6.25;;
73693;SDS011;61997;53.974;11.670;2023-02-15T08:51:40;9.80;;;5.43;;
73693;SDS011;61997;53.974;11.670;2023-02-15T08:54:07;12.77;;;6.72;;
73693;SDS011;61997;53.974;11.670;2023-02-15T08:56:35;10.77;;;5.85;;
73693;SDS011;61997;53.974;11.670;2023-02-15T08:59:02;10.60;;;5.75;;
73693;SDS011;61997;53.974;11.670;2023-02-15T09:01:29;11.55;;;5.68;;
73693;SDS011;61997;53.974;11.670;2023-02-15T09:03:56;9.05;;;5.82;;
73693;SDS011;61997;53.974;11.670;2023-02-15T09:06:23;9.77;;;5.45;;
73693;SDS011;61997;53.974;11.670;2023-02-15T09:08:49;11.45;;;5.95;;
73693;SDS011;61997;53.974;11.670;2023-02-15T09:11:16;10.15;;;5.75;;
73693;SDS011;61997;53.974;11.670;2023-02-15T09:14:00;10.93;;;5.88;;
73693;SDS011;61997;53.974;11.670;2023-02-15T09:16:30;11.10;;;6.20;;
73693;SDS011;61997;53.974;11.670;2023-02-15T09:18:57;10.18;;;5.35;;
73693;SDS011;61997;53.974;11.670;2023-02-15T09:21:23;10.55;;;5.68;;
73693;SDS011;61997;53.974;11.670;2023-02-15T09:23:50;8.65;;;5.30;;
73693;SDS011;61997;53.974;11.670;2023-02-15T09:26:17;11.05;;;5.75;;
73693;SDS011;61997;53.974;11.670;2023-02-15T09:28:44;10.85;;;5.75;;
73693;SDS011;61997;53.974;11.670;2023-02-15T09:31:11;9.70;;;5.38;;
73693;SDS011;61997;53.974;11.670;2023-02-15T09:33:39;8.32;;;4.88;;
73693;SDS011;61997;53.974;11.670;2023-02-15T09:36:05;12.70;;;6.13;;
73693;SDS011;61997;53.974;11.670;2023-02-15T09:38:38;9.38;;;5.63;;
73693;SDS011;61997;53.974;11.670;2023-02-15T09:43:40;9.65;;;5.35;;
73693;SDS011;61997;53.974;11.670;2023-02-15T09:48:40;9.80;;;5.47;;
73693;SDS011;61997;53.974;11.670;2023-02-15T09:56:48;9.13;;;5.30;;
73693;SDS011;61997;53.974;11.670;2023-02-15T10:10:02;9.18;;;5.15;;
73693;SDS011;61997;53.974;11.670;2023-02-15T10:16:16;10.38;;;5.13;;
73693;SDS011;61997;53.974;11.670;2023-02-15T10:18:49;10.93;;;5.88;;
73693;SDS011;61997;53.974;11.670;2023-02-15T10:26:55;9.20;;;5.15;;
73693;SDS011;61997;53.974;11.670;2023-02-15T10:29:37;10.07;;;5.00;;
73693;SDS011;61997;53.974;11.670;2023-02-15T10:40:26;8.63;;;5.00;;
73693;SDS011;61997;53.974;11.670;2023-02-15T10:48:15;7.38;;;5.07;;
73693;SDS011;61997;53.974;11.670;2023-02-15T10:50:53;8.10;;;4.43;;
73693;SDS011;61997;53.974;11.670;2023-02-15T10:58:33;8.15;;;5.03;;
73693;SDS011;61997;53.974;11.670;2023-02-15T11:06:16;8.90;;;4.60;;
73693;SDS011;61997;53.974;11.670;2023-02-15T11:08:44;8.85;;;5.20;;
73693;SDS011;61997;53.974;11.670;2023-02-15T11:11:12;9.02;;;4.95;;
73693;SDS011;61997;53.974;11.670;2023-02-15T11:13:45;8.82;;;5.40;;
73693;SDS011;61997;53.974;11.670;2023-02-15T11:16:15;7.05;;;4.53;;
73693;SDS011;61997;53.974;11.670;2023-02-15T11:18:51;10.55;;;5.38;;
73693;SDS011;61997;53.974;11.670;2023-02-15T11:23:54;10.63;;;5.53;;
73693;SDS011;61997;53.974;11.670;2023-02-15T11:29:13;8.13;;;4.63;;
73693;SDS011;61997;53.974;11.670;2023-02-15T11:34:20;8.93;;;4.38;;
73693;SDS011;61997;53.974;11.670;2023-02-15T11:36:48;7.40;;;4.75;;
73693;SDS011;61997;53.974;11.670;2023-02-15T11:39:16;7.70;;;4.85;;
73693;SDS011;61997;53.974;11.670;2023-02-15T11:41:47;7.75;;;5.00;;
73693;SDS011;61997;53.974;11.670;2023-02-15T11:46:45;7.68;;;4.53;;
73693;SDS011;61997;53.974;11.670;2023-02-15T11:49:22;8.52;;;4.90;;
73693;SDS011;61997;53.974;11.670;2023-02-15T11:51:50;8.75;;;4.35;;
73693;SDS011;61997;53.974;11.670;2023-02-15T11:54:17;8.85;;;4.68;;
73693;SDS011;61997;53.974;11.670;2023-02-15T11:56:43;9.38;;;4.63;;
73693;SDS011;61997;53.974;11.670;2023-02-15T11:59:10;8.77;;;4.07;;
73693;SDS011;61997;53.974;11.670;2023-02-15T12:07:01;8.93;;;4.15;;
73693;SDS011;61997;53.974;11.670;2023-02-15T12:09:59;9.32;;;5.10;;
73693;SDS011;61997;53.974;11.670;2023-02-15T12:12:26;7.05;;;4.20;;
73693;SDS011;61997;53.974;11.670;2023-02-15T12:14:53;10.25;;;5.10;;
73693;SDS011;61997;53.974;11.670;2023-02-15T12:17:23;9.30;;;5.10;;
73693;SDS011;61997;53.974;11.670;2023-02-15T12:19:50;7.82;;;4.70;;
73693;SDS011;61997;53.974;11.670;2023-02-15T12:22:38;8.88;;;4.47;;
73693;SDS011;61997;53.974;11.670;2023-02-15T12:25:22;9.32;;;4.38;;
73693;SDS011;61997;53.974;11.670;2023-02-15T12:27:51;10.18;;;4.70;;
73693;SDS011;61997;53.974;11.670;2023-02-15T12:33:13;6.40;;;4.20;;
73693;SDS011;61997;53.974;11.670;2023-02-15T12:35:41;8.70;;;4.45;;
73693;SDS011;61997;53.974;11.670;2023-02-15T12:40:35;11.40;;;5.10;;
73693;SDS011;61997;53.974;11.670;2023-02-15T12:43:01;7.97;;;5.07;;
73693;SDS011;61997;53.974;11.670;2023-02-15T12:45:35;8.40;;;5.00;;
73693;SDS011;61997;53.974;11.670;2023-02-15T12:50:47;8.30;;;5.10;;
73693;SDS011;61997;53.974;11.670;2023-02-15T12:53:18;9.20;;;4.20;;
73693;SDS011;61997;53.974;11.670;2023-02-15T12:56:03;7.10;;;4.57;;
73693;SDS011;61997;53.974;11.670;2023-02-15T12:58:33;8.68;;;4.63;;
73693;SDS011;61997;53.974;11.670;2023-02-15T13:03:33;7.07;;;4.20;;
73693;SDS011;61997;53.974;11.670;2023-02-15T13:05:59;11.15;;;4.88;;
73693;SDS011;61997;53.974;11.670;2023-02-15T13:08:37;9.18;;;4.60;;
73693;SDS011;61997;53.974;11.670;2023-02-15T13:11:11;9.13;;;4.57;;
73693;SDS011;61997;53.974;11.670;2023-02-15T13:13:53;8.30;;;4.38;;
73693;SDS011;61997;53.974;11.670;2023-02-15T13:16:29;9.43;;;4.32;;
73693;SDS011;61997;53.974;11.670;2023-02-15T13:18:56;7.35;;;4.55;;
73693;SDS011;61997;53.974;11.670;2023-02-15T13:21:23;8.00;;;4.63;;
73693;SDS011;61997;53.974;11.670;2023-02-15T13:23:55;9.02;;;4.82;;
73693;SDS011;61997;53.974;11.670;2023-02-15T13:26:23;7.07;;;3.72;;
73693;SDS011;61997;53.974;11.670;2023-02-15T13:28:52;9.13;;;4.32;;
73693;SDS011;61997;53.974;11.670;2023-02-15T13:31:20;9.70;;;4.68;;
73693;SDS011;61997;53.974;11.670;2023-02-15T13:33:53;9.80;;;4.78;;
73693;SDS011;61997;53.974;11.670;2023-02-15T13:44:16;8.70;;;4.40;;
73693;SDS011;61997;53.974;11.670;2023-02-15T13:52:06;8.52;;;5.00;;
73693;SDS011;61997;53.974;11.670;2023-02-15T14:10:58;8.30;;;4.82;;
73693;SDS011;61997;53.974;11.670;2023-02-15T14:16:41;9.75;;;4.53;;
73693;SDS011;61997;53.974;11.670;2023-02-15T14:21:59;8.50;;;3.80;;
73693;SDS011;61997;53.974;11.670;2023-02-15T14:30:00;8.38;;;4.63;;
73693;SDS011;61997;53.974;11.670;2023-02-15T14:35:29;8.63;;;4.15;;
73693;SDS011;61997;53.974;11.670;2023-02-15T14:38:15;7.80;;;4.20;;
73693;SDS011;61997;53.974;11.670;2023-02-15T14:40:59;7.25;;;4.40;;
73693;SDS011;61997;53.974;11.670;2023-02-15T14:44:15;8.68;;;4.63;;
73693;SDS011;61997;53.974;11.670;2023-02-15T14:46:57;9.30;;;4.63;;
73693;SDS011;61997;53.974;11.670;2023-02-15T14:49:32;10.88;;;4.40;;
73693;SDS011;61997;53.974;11.670;2023-02-15T14:52:05;9.60;;;5.00;;
73693;SDS011;61997;53.974;11.670;2023-02-15T14:59:27;8.27;;;4.28;;
73693;SDS011;61997;53.974;11.670;2023-02-15T15:04:38;6.80;;;4.43;;
73693;SDS011;61997;53.974;11.670;2023-02-15T15:09:37;9.57;;;4.88;;
73693;SDS011;61997;53.974;11.670;2023-02-15T15:14:48;8.70;;;4.28;;
73693;SDS011;61997;53.974;11.670;2023-02-15T15:30:57;11.52;;;5.18;;
73693;SDS011;61997;53.974;11.670;2023-02-15T15:42:50;10.82;;;5.47;;
73693;SDS011;61997;53.974;11.670;2023-02-15T15:51:20;13.55;;;5.25;;
73693;SDS011;61997;53.974;11.670;2023-02-15T15:53:50;12.23;;;6.38;;
73693;SDS011;61997;53.974;11.670;2023-02-15T15:56:22;15.23;;;6.22;;
73693;SDS011;61997;53.974;11.670;2023-02-15T15:58:50;13.63;;;6.90;;
73693;SDS011;61997;53.974;11.670;2023-02-15T16:01:28;12.77;;;6.80;;
73693;SDS011;61997;53.974;11.670;2023-02-15T16:03:56;12.98;;;6.32;;
73693;SDS011;61997;53.974;11.670;2023-02-15T16:06:26;14.07;;;6.55;;
73693;SDS011;61997;53.974;11.670;2023-02-15T16:09:11;13.85;;;6.30;;
73693;SDS011;61997;53.974;11.670;2023-02-15T16:11:49;14.57;;;6.05;;
73693;SDS011;61997;53.974;11.670;2023-02-15T16:14:21;12.32;;;6.43;;
73693;SDS011;61997;53.974;11.670;2023-02-15T16:16:49;11.77;;;6.07;;
73693;SDS011;61997;53.974;11.670;2023-02-15T16:19:18;14.18;;;7.20;;
73693;SDS011;61997;53.974;11.670;2023-02-15T16:21:46;13.40;;;6.03;;
73693;SDS011;61997;53.974;11.670;2023-02-15T16:27:39;12.88;;;6.22;;
73693;SDS011;61997;53.974;11.670;2023-02-15T16:33:13;14.93;;;6.75;;
73693;SDS011;61997;53.974;11.670;2023-02-15T16:36:01;13.55;;;6.35;;
73693;SDS011;61997;53.974;11.670;2023-02-15T16:41:09;10.90;;;5.63;;
73693;SDS011;61997;53.974;11.670;2023-02-15T16:43:36;11.00;;;5.68;;
73693;SDS011;61997;53.974;11.670;2023-02-15T16:46:03;13.60;;;5.90;;
73693;SDS011;61997;53.974;11.670;2023-02-15T16:48:30;14.73;;;6.60;;
73693;SDS011;61997;53.974;11.670;2023-02-15T16:50:56;10.48;;;6.13;;
73693;SDS011;61997;53.974;11.670;2023-02-15T16:53:24;11.40;;;5.68;;
73693;SDS011;61997;53.974;11.670;2023-02-15T16:55:52;10.07;;;5.72;;
73693;SDS011;61997;53.974;11.670;2023-02-15T17:00:48;11.95;;;6.07;;
73693;SDS011;61997;53.974;11.670;2023-02-15T17:10:42;15.35;;;6.32;;
73693;SDS011;61997;53.974;11.670;2023-02-15T17:13:14;12.45;;;6.68;;
73693;SDS011;61997;53.974;11.670;2023-02-15T17:15:41;12.70;;;6.15;;
73693;SDS011;61997;53.974;11.670;2023-02-15T17:18:13;12.02;;;6.18;;
73693;SDS011;61997;53.974;11.670;2023-02-15T17:20:41;12.20;;;6.45;;
73693;SDS011;61997;53.974;11.670;2023-02-15T17:25:57;13.32;;;6.55;;
73693;SDS011;61997;53.974;11.670;2023-02-15T17:28:24;13.77;;;7.03;;
73693;SDS011;61997;53.974;11.670;2023-02-15T17:30:51;13.23;;;6.72;;
73693;SDS011;61997;53.974;11.670;2023-02-15T17:38:42;15.52;;;7.25;;
73693;SDS011;61997;53.974;11.670;2023-02-15T17:41:24;14.30;;;7.85;;
73693;SDS011;61997;53.974;11.670;2023-02-15T17:43:54;16.30;;;8.57;;
73693;SDS011;61997;53.974;11.670;2023-02-15T17:46:19;13.88;;;8.20;;
73693;SDS011;61997;53.974;11.670;2023-02-15T17:48:49;15.10;;;7.57;;
73693;SDS011;61997;53.974;11.670;2023-02-15T17:51:16;16.90;;;8.18;;
73693;SDS011;61997;53.974;11.670;2023-02-15T17:53:42;16.50;;;8.20;;
73693;SDS011;61997;53.974;11.670;2023-02-15T17:56:27;18.02;;;8.00;;
73693;SDS011;61997;53.974;11.670;2023-02-15T17:58:52;14.43;;;8.43;;
73693;SDS011;61997;53.974;11.670;2023-02-15T18:01:18;15.63;;;8.18;;
73693;SDS011;61997;53.974;11.670;2023-02-15T18:04:03;15.65;;;8.05;;
73693;SDS011;61997;53.974;11.670;2023-02-15T18:06:50;17.70;;;9.25;;
73693;SDS011;61997;53.974;11.670;2023-02-15T18:09:34;17.55;;;9.00;;
73693;SDS011;61997;53.974;11.670;2023-02-15T18:12:22;17.75;;;8.50;;
73693;SDS011;61997;53.974;11.670;2023-02-15T18:14:50;17.50;;;9.25;;
73693;SDS011;61997;53.974;11.670;2023-02-15T18:17:16;15.23;;;9.20;;
73693;SDS011;61997;53.974;11.670;2023-02-15T18:19:42;18.90;;;10.68;;
73693;SDS011;61997;53.974;11.670;2023-02-15T18:22:12;19.50;;;9.32;;
73693;SDS011;61997;53.974;11.670;2023-02-15T18:24:40;19.13;;;9.13;;
73693;SDS011;61997;53.974;11.670;2023-02-15T18:27:05;20.70;;;9.82;;
73693;SDS011;61997;53.974;11.670;2023-02-15T18:29:31;14.57;;;9.15;;
73693;SDS011;61997;53.974;11.670;2023-02-15T18:31:56;18.55;;;9.77;;
73693;SDS011;61997;53.974;11.670;2023-02-15T18:34:31;20.38;;;9.73;;
73693;SDS011;61997;53.974;11.670;2023-02-15T18:36:58;20.98;;;10.60;;